Time;durP1;ratioP1;P1;durP2;ratioP2;P2;SDS_P1;SDS_P2;PMS_P1;PMS_P2;Temp;Humidity;BMP_temperature;BMP_pressure;BME280_temperature;BME280_humidity;BME280_pressure;Samples;Min_cycle;Max_cycle;Signal;HPM_P1;HPM_P2
2022/02/01 00:01:42;;;;;;;24.55;2.40;;;;;;;2.56;100.00;102296.06;5287900;28;20053;-80
2022/02/01 00:07:11;;;;;;;19.33;3.22;;;;;;;2.59;100.00;102282.63;5287785;28;20571;-79
2022/02/01 00:17:58;;;;;;;24.15;3.67;;;;;;;2.30;100.00;102300.00;5290473;28;20031;-79
2022/02/01 00:35:12;;;;;;;13.52;3.78;;;;;;;2.49;100.00;102304.38;5278525;28;20027;-79
2022/02/01 00:37:39;;;;;;;17.77;3.53;;;;;;;2.56;100.00;102289.88;5276056;28;20016;-79
2022/02/01 00:40:12;;;;;;;19.13;2.42;;;;;;;2.72;100.00;102285.50;5289754;28;20027;-79
2022/02/01 00:42:43;;;;;;;26.13;3.33;;;;;;;2.90;100.00;102285.47;5290337;28;20031;-79
2022/02/01 00:45:13;;;;;;;17.70;5.22;;;;;;;2.99;100.00;102282.31;5270750;28;20084;-80
2022/02/01 00:47:44;;;;;;;16.98;2.60;;;;;;;3.16;100.00;102286.69;5269687;28;20031;-80
2022/02/01 00:50:16;;;;;;;20.45;2.55;;;;;;;3.11;100.00;102297.56;5287924;28;20056;-80
2022/02/01 00:52:46;;;;;;;14.32;1.98;;;;;;;3.14;100.00;102300.06;5287321;28;20051;-80
2022/02/01 00:55:17;;;;;;;22.92;2.58;;;;;;;3.32;100.00;102295.56;5286708;28;20107;-81
2022/02/01 00:57:47;;;;;;;12.05;1.80;;;;;;;3.47;100.00;102300.03;5286914;28;20038;-80
2022/02/01 01:00:18;;;;;;;13.10;1.73;;;;;;;3.52;100.00;102305.06;5269008;28;20028;-80
2022/02/01 01:02:49;;;;;;;11.50;2.67;;;;;;;3.52;100.00;102313.88;5287942;28;20024;-81
2022/02/01 01:05:19;;;;;;;20.30;1.83;;;;;;;3.55;100.00;102310.19;5288513;28;20062;-80
2022/02/01 01:07:50;;;;;;;14.10;1.58;;;;;;;3.55;100.00;102303.09;5287969;28;20435;-80
2022/02/01 01:10:20;;;;;;;14.52;1.75;;;;;;;3.54;100.00;102316.44;5270209;28;20027;-80
2022/02/01 01:13:03;;;;;;;11.30;1.70;;;;;;;3.50;100.00;102309.59;5287258;28;20019;-80
2022/02/01 01:15:35;;;;;;;15.05;1.83;;;;;;;3.48;100.00;102311.50;5286464;28;20386;-80
2022/02/01 01:54:28;;;;;;;15.55;2.65;;;;;;;3.21;100.00;102282.00;5285708;28;20395;-78
2022/02/01 01:56:59;;;;;;;18.95;2.70;;;;;;;3.26;100.00;102285.25;5270673;28;20027;-78
2022/02/01 01:59:29;;;;;;;9.13;2.03;;;;;;;3.52;100.00;102273.22;5269987;28;20054;-79
2022/02/01 02:02:00;;;;;;;20.77;2.88;;;;;;;3.52;100.00;102265.28;5270341;28;20035;-79
2022/02/01 02:04:30;;;;;;;14.20;2.00;;;;;;;3.51;100.00;102261.75;5288924;28;20062;-78
2022/02/01 02:07:01;;;;;;;12.82;2.30;;;;;;;3.50;100.00;102273.31;5288916;28;20717;-79
2022/02/01 02:09:32;;;;;;;18.50;2.70;;;;;;;3.50;100.00;102288.38;5287344;28;20020;-78
2022/02/01 02:12:13;;;;;;;14.60;3.08;;;;;;;3.51;100.00;102295.38;5285408;28;20080;-78
2022/02/01 02:14:50;;;;;;;17.77;2.42;;;;;;;3.48;100.00;102282.31;5285439;28;20054;-78
2022/02/01 02:17:20;;;;;;;13.85;2.00;;;;;;;3.45;100.00;102288.63;5285893;28;20031;-78
2022/02/01 02:19:51;;;;;;;17.23;2.33;;;;;;;3.42;100.00;102285.31;5285959;28;20077;-79
2022/02/01 02:22:22;;;;;;;11.75;2.20;;;;;;;3.42;100.00;102296.75;5285608;28;20027;-77
2022/02/01 02:24:53;;;;;;;13.35;2.03;;;;;;;3.42;100.00;102307.38;5275239;28;20368;-78
2022/02/01 02:27:23;;;;;;;15.82;2.53;;;;;;;3.41;100.00;102299.47;5282569;28;20106;-78
2022/02/01 02:29:53;;;;;;;20.95;2.35;;;;;;;3.38;100.00;102296.06;5285856;28;20023;-77
2022/02/01 02:32:25;;;;;;;25.83;2.95;;;;;;;3.35;100.00;102282.09;5260104;28;20585;-77
2022/02/01 02:34:55;;;;;;;20.52;3.25;;;;;;;3.30;100.00;102271.75;5285752;28;20081;-78
2022/02/01 02:37:30;;;;;;;17.42;2.45;;;;;;;3.32;100.00;102275.19;5288545;28;20152;-79
2022/02/01 02:40:16;;;;;;;16.73;2.70;;;;;;;3.36;100.00;102260.81;5270341;28;20038;-78
2022/02/01 02:45:36;;;;;;;23.73;2.75;;;;;;;3.33;100.00;102282.19;5284934;28;20020;-77
2022/02/01 02:48:07;;;;;;;17.08;1.98;;;;;;;3.30;100.00;102277.06;5285368;28;20026;-77
2022/02/01 02:50:37;;;;;;;16.05;2.25;;;;;;;3.27;100.00;102276.38;5267208;28;20059;-76
2022/02/01 02:53:08;;;;;;;13.20;2.08;;;;;;;3.30;100.00;102281.50;5285336;28;20027;-76
2022/02/01 02:55:39;;;;;;;9.95;2.20;;;;;;;3.32;100.00;102261.06;5286050;28;20019;-77
2022/02/01 02:58:14;;;;;;;20.48;4.25;;;;;;;3.33;100.00;102268.09;5285831;28;20043;-77
2022/02/01 03:00:47;;;;;;;14.38;2.30;;;;;;;3.35;100.00;102252.94;5268131;28;20542;-77
2022/02/01 03:03:18;;;;;;;23.98;3.38;;;;;;;3.30;100.00;102250.53;5285445;28;20027;-77
2022/02/01 03:06:08;;;;;;;20.63;3.53;;;;;;;3.28;100.00;102239.16;5255607;28;20061;-77
2022/02/01 03:08:41;;;;;;;20.42;2.92;;;;;;;3.27;100.00;102245.41;5285053;28;20023;-77
2022/02/01 03:11:14;;;;;;;20.88;2.63;;;;;;;3.29;100.00;102248.81;5285105;28;20428;-77
2022/02/01 03:13:55;;;;;;;18.88;2.72;;;;;;;3.31;100.00;102244.31;5284936;28;20024;-77
2022/02/01 03:16:36;;;;;;;9.40;1.92;;;;;;;3.31;100.00;102241.66;5284733;28;20023;-77
2022/02/01 03:21:56;;;;;;;16.75;2.58;;;;;;;3.36;100.00;102244.03;5285356;28;20030;-77
2022/02/01 03:24:26;;;;;;;10.90;2.33;;;;;;;3.35;100.00;102248.47;5265157;28;20027;-77
2022/02/01 03:26:57;;;;;;;15.05;2.28;;;;;;;3.32;100.00;102238.06;5282218;28;20165;-77
2022/02/01 03:29:28;;;;;;;13.35;2.25;;;;;;;3.36;100.00;102229.00;5288875;28;20185;-77
2022/02/01 03:31:59;;;;;;;17.00;2.30;;;;;;;3.38;100.00;102237.72;5281375;28;20038;-77
2022/02/01 03:34:29;;;;;;;16.83;2.10;;;;;;;3.39;100.00;102235.91;5270357;28;20402;-77
2022/02/01 03:37:00;;;;;;;20.42;2.50;;;;;;;3.38;100.00;102235.06;5288620;28;20035;-77
2022/02/01 03:39:30;;;;;;;24.60;2.70;;;;;;;3.32;100.00;102214.19;5288329;28;20386;-77
2022/02/01 03:42:02;;;;;;;17.98;2.75;;;;;;;3.37;100.00;102198.00;5288216;28;20088;-77
2022/02/01 03:44:33;;;;;;;20.23;2.90;;;;;;;3.33;100.00;102192.00;5288173;28;20024;-77
2022/02/01 03:47:04;;;;;;;23.38;2.70;;;;;;;3.37;100.00;102190.91;5287800;28;20054;-77
2022/02/01 03:49:38;;;;;;;19.27;3.03;;;;;;;3.36;100.00;102160.03;5269691;28;20020;-77
2022/02/01 03:52:10;;;;;;;17.98;2.60;;;;;;;3.41;100.00;102153.56;5275537;28;20396;-77
2022/02/01 03:54:41;;;;;;;15.73;2.88;;;;;;;3.42;100.00;102157.97;5288836;28;20047;-78
2022/02/01 03:57:15;;;;;;;21.33;6.75;;;;;;;3.44;100.00;102164.03;5290636;28;20031;-77
2022/02/01 03:59:46;;;;;;;23.83;6.07;;;;;;;3.41;100.00;102161.53;5290033;28;20023;-77
2022/02/01 04:02:17;;;;;;;27.80;4.88;;;;;;;3.40;100.00;102147.41;5290812;28;20404;-77
2022/02/01 04:04:53;;;;;;;91.47;32.50;;;;;;;3.41;100.00;102156.22;5288766;28;20026;-77
2022/02/01 04:07:23;;;;;;;;;;;;;;;3.42;100.00;102150.00;5289844;28;20028;-77
2022/02/01 04:09:53;;;;;;;30.25;10.55;;;;;;;3.46;100.00;102159.47;5270309;28;19907;-77
2022/02/01 04:12:25;;;;;;;55.70;26.35;;;;;;;3.45;100.00;102166.56;5287718;28;20103;-76
2022/02/01 04:14:57;;;;;;;25.27;5.55;;;;;;;3.47;100.00;102174.47;5269164;28;20027;-77
2022/02/01 04:17:28;;;;;;;20.02;3.78;;;;;;;3.47;100.00;102169.16;5287825;28;20380;-77
2022/02/01 04:19:58;;;;;;;31.23;10.15;;;;;;;3.50;100.00;102182.22;5287733;28;20027;-77
2022/02/01 04:22:29;;;;;;;24.33;3.83;;;;;;;3.50;100.00;102179.56;5287528;28;20458;-77
2022/02/01 04:24:59;;;;;;;22.25;5.65;;;;;;;3.52;100.00;102188.31;5276149;28;20077;-77
2022/02/01 04:27:31;;;;;;;68.60;25.50;;;;;;;3.53;100.00;102184.72;5285100;28;20102;-78
2022/02/01 04:30:07;;;;;;;22.10;5.10;;;;;;;3.52;100.00;102183.03;5287218;28;20455;-77
2022/02/01 04:32:40;;;;;;;38.88;7.15;;;;;;;3.56;100.00;102176.56;5280309;28;20072;-77
2022/02/01 04:35:15;;;;;;;27.50;5.38;;;;;;;3.55;100.00;102181.03;5286660;28;20050;-77
2022/02/01 04:37:45;;;;;;;16.67;5.45;;;;;;;3.55;100.00;102183.69;5287421;28;20409;-77
2022/02/01 04:40:17;;;;;;;19.48;3.67;;;;;;;3.51;100.00;102168.88;5287384;28;20076;-76
2022/02/01 04:42:50;;;;;;;17.33;5.13;;;;;;;3.50;100.00;102167.16;5268851;28;20089;-76
2022/02/01 04:45:23;;;;;;;18.45;3.63;;;;;;;3.50;100.00;102161.84;5268606;28;20050;-76
2022/02/01 04:47:54;;;;;;;16.95;3.60;;;;;;;3.49;100.00;102160.16;5287264;28;20654;-76
2022/02/01 04:50:27;;;;;;;32.90;4.18;;;;;;;3.50;100.00;102156.56;5287034;28;20328;-76
2022/02/01 04:52:58;;;;;;;21.80;4.68;;;;;;;3.52;100.00;102151.19;5286687;28;20027;-76
2022/02/01 04:55:42;;;;;;;26.90;4.50;;;;;;;3.51;100.00;102147.63;5287026;28;20028;-76
2022/02/01 04:58:13;;;;;;;20.00;4.50;;;;;;;3.54;100.00;102147.47;5286707;28;20339;-76
2022/02/01 05:00:43;;;;;;;30.98;6.60;;;;;;;3.53;100.00;102139.63;5286742;28;20090;-76
2022/02/01 05:03:14;;;;;;;23.88;8.45;;;;;;;3.51;100.00;102136.19;5287158;28;20051;-76
2022/02/01 05:05:45;;;;;;;23.40;5.30;;;;;;;3.56;100.00;102139.41;5268272;28;20024;-76
2022/02/01 05:08:15;;;;;;;15.13;4.82;;;;;;;3.55;100.00;102143.88;5286668;28;20104;-76
2022/02/01 05:10:46;;;;;;;33.38;5.50;;;;;;;3.54;100.00;102154.59;5286384;28;20016;-77
2022/02/01 05:13:45;;;;;;;26.45;6.25;;;;;;;3.55;100.00;102153.63;5286433;28;20023;-77
2022/02/01 05:16:13;;;;;;;21.88;6.45;;;;;;;3.54;100.00;102147.47;5285987;28;20085;-77
2022/02/01 05:18:47;;;;;;;38.20;7.15;;;;;;;3.53;100.00;102139.63;5286319;28;20028;-77
2022/02/01 05:24:10;;;;;;;39.10;9.27;;;;;;;3.55;100.00;102133.25;5282754;28;20380;-77
2022/02/01 05:26:42;;;;;;;28.27;6.95;;;;;;;3.52;100.00;102132.59;5276895;28;20075;-77
2022/02/01 05:29:13;;;;;;;31.77;7.85;;;;;;;3.52;100.00;102132.59;5285878;28;20437;-77
2022/02/01 05:31:44;;;;;;;43.53;8.57;;;;;;;3.49;100.00;102133.63;5278964;28;20070;-77
2022/02/01 05:34:15;;;;;;;28.08;6.60;;;;;;;3.47;100.00;102122.25;5267865;28;20489;-77
2022/02/01 05:36:45;;;;;;;32.20;7.15;;;;;;;3.48;100.00;102117.81;5267331;28;20031;-77
2022/02/01 05:39:20;;;;;;;26.50;7.50;;;;;;;3.43;100.00;102111.91;5285886;28;20015;-77
2022/02/01 05:41:53;;;;;;;37.20;8.85;;;;;;;3.43;100.00;102117.22;5285853;28;20085;-77
2022/02/01 05:44:23;;;;;;;40.05;8.50;;;;;;;3.41;100.00;102109.31;5286263;28;20051;-77
2022/02/01 05:46:54;;;;;;;43.47;9.13;;;;;;;3.36;100.00;102103.44;5285344;28;20053;-77
2022/02/01 05:49:24;;;;;;;35.67;8.68;;;;;;;3.38;100.00;102094.44;5285810;28;20024;-77
2022/02/01 05:51:58;;;;;;;41.15;10.32;;;;;;;3.40;100.00;102086.41;5287085;28;20530;-77
2022/02/01 05:54:30;;;;;;;43.80;10.07;;;;;;;3.39;100.00;102092.66;5286313;28;20212;-77
2022/02/01 05:57:01;;;;;;;43.85;10.00;;;;;;;3.39;100.00;102068.78;5286351;28;20387;-77
2022/02/01 05:59:31;;;;;;;38.97;11.05;;;;;;;3.37;100.00;102060.91;5285987;28;20034;-77
2022/02/01 06:02:02;;;;;;;43.38;11.70;;;;;;;3.42;100.00;102055.34;5278053;28;20055;-77
2022/02/01 06:04:32;;;;;;;45.83;12.25;;;;;;;3.41;100.00;102047.47;5246667;28;20024;-77
2022/02/01 06:07:03;;;;;;;36.90;10.23;;;;;;;3.46;100.00;102042.72;5265746;28;20031;-77
2022/02/01 06:09:34;;;;;;;42.03;10.75;;;;;;;3.49;100.00;102047.88;5264888;28;20709;-79
2022/02/01 06:12:05;;;;;;;47.58;10.85;;;;;;;3.47;100.00;102025.88;5265237;28;20023;-79
2022/02/01 06:14:35;;;;;;;46.75;11.18;;;;;;;3.47;100.00;102023.25;5266702;28;20058;-79
2022/02/01 06:17:07;;;;;;;46.55;10.77;;;;;;;3.47;100.00;102028.53;5267849;28;20487;-79
2022/02/01 06:19:37;;;;;;;49.40;12.60;;;;;;;3.46;100.00;102030.31;5266997;28;20119;-76
2022/02/01 06:22:08;;;;;;;51.72;14.07;;;;;;;3.46;100.00;102024.16;5265683;28;20024;-80
2022/02/01 06:24:38;;;;;;;45.42;12.45;;;;;;;3.49;100.00;102029.28;5267522;28;20043;-80
2022/02/01 06:27:09;;;;;;;39.92;13.00;;;;;;;3.49;100.00;102043.41;5250001;28;20053;-78
2022/02/01 06:29:39;;;;;;;40.20;12.95;;;;;;;3.55;100.00;102042.19;5289956;28;20058;-77
2022/02/01 06:32:10;;;;;;;40.33;13.02;;;;;;;3.52;100.00;102037.09;5279536;28;20054;-79
2022/02/01 06:34:40;;;;;;;51.58;13.80;;;;;;;3.52;100.00;102040.59;5289293;28;20031;-82
2022/02/01 06:37:11;;;;;;;54.50;15.85;;;;;;;3.46;100.00;102040.94;5260128;28;20546;-79
2022/02/01 06:39:41;;;;;;;47.20;12.73;;;;;;;3.56;100.00;102031.47;5256580;28;20471;-80
2022/02/01 06:42:12;;;;;;;46.38;12.27;;;;;;;3.57;100.00;102021.75;5289437;28;20020;-79
2022/02/01 06:44:43;;;;;;;48.55;12.77;;;;;;;3.58;100.00;102018.13;5289532;28;20151;-79
2022/02/01 06:47:14;;;;;;;45.50;13.32;;;;;;;3.54;100.00;102006.84;5269069;28;20511;-80
2022/02/01 06:49:46;;;;;;;34.45;12.98;;;;;;;3.58;100.00;102007.53;5269530;28;20027;-79
2022/02/01 06:52:17;;;;;;;33.60;12.82;;;;;;;3.55;100.00;101997.94;5268335;28;20028;-79
2022/02/01 06:54:47;;;;;;;38.05;13.23;;;;;;;3.58;100.00;101996.91;5287439;28;20042;-79
2022/02/01 06:57:17;;;;;;;34.33;12.40;;;;;;;3.54;100.00;102006.00;5290959;28;20024;-79
2022/02/01 06:59:48;;;;;;;40.22;13.05;;;;;;;3.52;100.00;101998.13;5278808;28;20028;-79
2022/02/01 07:02:18;;;;;;;37.15;14.73;;;;;;;3.59;100.00;101995.94;5254311;28;20024;-79
2022/02/01 07:04:49;;;;;;;38.50;14.07;;;;;;;3.66;100.00;101986.66;5268941;28;20501;-79
2022/02/01 07:07:19;;;;;;;34.08;13.18;;;;;;;3.59;100.00;101986.19;5269369;28;20470;-79
2022/02/01 07:09:50;;;;;;;53.63;17.02;;;;;;;3.62;100.00;101980.72;5270645;28;20497;-77
2022/02/01 07:12:20;;;;;;;35.97;13.93;;;;;;;3.66;100.00;101984.00;5288548;28;20035;-77
2022/02/01 07:14:51;;;;;;;27.00;12.38;;;;;;;3.72;100.00;101980.16;5288143;28;20041;-77
2022/02/01 07:17:21;;;;;;;35.38;12.27;;;;;;;3.69;100.00;101973.22;5288707;28;20060;-77
2022/02/01 07:19:52;;;;;;;37.53;12.90;;;;;;;3.72;100.00;101970.38;5288461;28;20115;-77
2022/02/01 07:22:22;;;;;;;35.63;13.68;;;;;;;3.77;100.00;101960.34;5270310;28;20030;-77
2022/02/01 07:24:57;;;;;;;38.05;13.63;;;;;;;3.77;100.00;101957.69;5278093;28;20027;-77
2022/02/01 07:27:47;;;;;;;40.65;14.48;;;;;;;3.83;100.00;101956.44;5285594;28;20032;-77
2022/02/01 07:30:23;;;;;;;35.17;13.38;;;;;;;3.85;100.00;101938.59;5288824;28;20469;-77
2022/02/01 07:32:57;;;;;;;38.85;14.25;;;;;;;3.88;100.00;101928.66;5280228;28;20092;-77
2022/02/01 07:35:30;;;;;;;43.45;14.48;;;;;;;3.90;100.00;101937.34;5284356;28;20031;-77
2022/02/01 07:38:01;;;;;;;37.22;14.38;;;;;;;3.98;100.00;101936.03;5287653;28;20028;-77
2022/02/01 07:40:34;;;;;;;39.05;14.95;;;;;;;4.02;100.00;101935.75;5268956;28;20466;-77
2022/02/01 07:43:04;;;;;;;35.63;13.98;;;;;;;4.01;100.00;101942.00;5287285;28;20055;-77
2022/02/01 07:45:37;;;;;;;37.08;13.90;;;;;;;4.08;100.00;101951.28;5287383;28;20051;-77
2022/02/01 07:48:08;;;;;;;36.95;13.75;;;;;;;4.05;100.00;101937.34;5287446;28;20113;-77
2022/02/01 07:50:40;;;;;;;35.38;15.48;;;;;;;4.12;100.00;101951.97;5287309;28;20099;-77
2022/02/01 07:53:11;;;;;;;35.40;13.63;;;;;;;4.14;100.00;101948.25;5287372;28;20033;-78
2022/02/01 07:55:42;;;;;;;38.28;14.32;;;;;;;4.20;100.00;101939.03;5289069;28;20055;-77
2022/02/01 07:58:12;;;;;;;35.13;15.48;;;;;;;4.21;100.00;101943.38;5288433;28;20136;-77
2022/02/01 08:00:43;;;;;;;38.10;13.38;;;;;;;4.25;100.00;101934.25;5288550;28;20076;-80
2022/02/01 08:03:13;;;;;;;27.30;11.93;;;;;;;4.28;100.00;101933.22;5277100;28;20034;-81
2022/02/01 08:05:44;;;;;;;31.25;13.43;;;;;;;4.31;100.00;101923.22;5287779;28;20061;-80
2022/02/01 08:08:14;;;;;;;25.00;11.15;;;;;;;4.30;100.00;101912.72;5288422;28;20022;-80
2022/02/01 08:10:49;;;;;;;26.17;12.25;;;;;;;4.34;100.00;101917.72;5286833;28;20099;-80
2022/02/01 08:18:58;;;;;;;36.28;14.10;;;;;;;4.45;100.00;101895.78;5289210;28;20081;-84
2022/02/01 08:21:29;;;;;;;25.17;11.48;;;;;;;4.46;100.00;101892.16;5258573;28;20027;-81
2022/02/01 08:24:00;;;;;;;26.52;10.57;;;;;;;4.52;100.00;101893.56;5285724;28;20036;-80
2022/02/01 08:26:30;;;;;;;23.25;10.63;;;;;;;4.57;100.00;101887.00;5278337;28;20019;-81
2022/02/01 08:29:01;;;;;;;21.95;9.90;;;;;;;4.58;100.00;101874.56;5290595;28;20437;-83
2022/02/01 08:31:32;;;;;;;25.60;11.75;;;;;;;4.59;100.00;101869.13;5265758;28;20020;-84
2022/02/01 08:34:04;;;;;;;26.98;9.77;;;;;;;4.60;100.00;101884.13;5292244;28;20070;-84
2022/02/01 08:36:35;;;;;;;31.95;12.48;;;;;;;4.65;100.00;101876.69;5288993;28;20027;-81
2022/02/01 08:39:05;;;;;;;27.73;11.73;;;;;;;4.72;100.00;101877.16;5286907;28;20023;-80
2022/02/01 08:41:36;;;;;;;22.25;10.52;;;;;;;4.75;100.00;101866.28;5287436;28;20035;-80
2022/02/01 08:44:07;;;;;;;25.38;10.95;;;;;;;4.76;100.00;101853.84;5269241;28;20467;-80
2022/02/01 08:46:38;;;;;;;26.73;10.98;;;;;;;4.81;100.00;101859.72;5287478;28;20106;-81
2022/02/01 08:49:08;;;;;;;30.63;11.43;;;;;;;4.76;100.00;101854.69;5269534;28;20019;-80
2022/02/01 08:51:42;;;;;;;26.15;11.35;;;;;;;4.82;100.00;101850.75;5268944;28;20023;-80
2022/02/01 08:54:19;;;;;;;21.42;8.73;;;;;;;4.83;100.00;101842.72;5286284;28;20027;-80
2022/02/01 08:59:39;;;;;;;29.20;11.13;;;;;;;4.89;100.00;101850.25;5270645;28;20536;-80
2022/02/01 09:02:10;;;;;;;32.88;10.15;;;;;;;4.88;100.00;101839.75;5267904;28;20055;-81
2022/02/01 09:04:41;;;;;;;27.95;12.68;;;;;;;4.89;100.00;101850.25;5285999;28;20023;-80
2022/02/01 09:07:11;;;;;;;24.55;10.57;;;;;;;4.95;100.00;101838.34;5286261;28;20060;-81
2022/02/01 09:09:42;;;;;;;36.13;13.65;;;;;;;5.00;100.00;101830.91;5267738;28;20043;-81
2022/02/01 09:12:14;;;;;;;31.95;12.52;;;;;;;5.05;100.00;101833.25;5285635;28;20441;-80
2022/02/01 09:14:46;;;;;;;35.20;13.55;;;;;;;5.06;100.00;101818.97;5286117;28;20106;-80
2022/02/01 09:17:17;;;;;;;27.25;11.35;;;;;;;5.08;100.00;101815.28;5286188;28;20030;-80
2022/02/01 09:19:48;;;;;;;19.85;10.07;;;;;;;5.08;100.00;101822.41;5267975;28;20024;-80
2022/02/01 09:22:18;;;;;;;31.48;13.30;;;;;;;5.06;100.00;101816.31;5268091;28;20027;-80
2022/02/01 09:24:49;;;;;;;29.00;10.55;;;;;;;5.08;100.00;101788.69;5258439;28;20107;-80
2022/02/01 09:27:20;;;;;;;25.17;9.70;;;;;;;5.11;100.00;101792.91;5282513;28;20019;-81
2022/02/01 09:29:51;;;;;;;25.85;11.13;;;;;;;5.16;100.00;101780.97;5286463;28;20442;-80
2022/02/01 09:32:23;;;;;;;25.75;11.25;;;;;;;5.18;100.00;101778.25;5284253;28;20019;-80
2022/02/01 09:34:54;;;;;;;27.38;10.02;;;;;;;5.17;100.00;101769.41;5286055;28;20045;-80
2022/02/01 09:37:24;;;;;;;31.70;14.95;;;;;;;5.22;100.00;101763.75;5267890;28;20019;-81
2022/02/01 09:39:54;;;;;;;23.10;9.98;;;;;;;5.24;100.00;101779.59;5268112;28;20076;-80
2022/02/01 09:42:27;;;;;;;28.98;12.95;;;;;;;5.26;100.00;101783.00;5286314;28;20038;-80
2022/02/01 09:44:58;;;;;;;28.58;15.00;;;;;;;5.30;100.00;101774.69;5285800;28;20027;-80
2022/02/01 09:47:31;;;;;;;23.08;11.57;;;;;;;5.29;100.00;101766.84;5286142;28;20419;-80
2022/02/01 09:50:04;;;;;;;35.83;13.82;;;;;;;5.33;100.00;101747.88;5268165;28;20055;-80
2022/02/01 09:52:37;;;;;;;25.50;12.20;;;;;;;5.38;100.00;101753.72;5267983;28;20035;-79
2022/02/01 09:55:09;;;;;;;27.92;11.25;;;;;;;5.39;100.00;101754.56;5270723;28;20031;-80
2022/02/01 09:57:44;;;;;;;28.10;12.20;;;;;;;5.44;100.00;101744.44;5269088;28;20207;-80
2022/02/01 10:00:20;;;;;;;28.85;12.02;;;;;;;5.43;100.00;101724.97;5255144;28;20020;-80
2022/02/01 10:03:14;;;;;;;31.17;12.45;;;;;;;5.57;100.00;101721.31;5286294;28;20023;-81
2022/02/01 10:06:02;;;;;;;33.25;13.30;;;;;;;5.55;100.00;101731.19;5272235;28;20068;-82
2022/02/01 10:08:34;;;;;;;32.45;12.70;;;;;;;5.59;100.00;101732.66;5263008;28;20016;-82
2022/02/01 10:11:09;;;;;;;31.05;12.43;;;;;;;5.59;100.00;101740.66;5288606;28;20026;-80
2022/02/01 10:13:43;;;;;;;29.08;12.48;;;;;;;5.69;100.00;101730.19;5274799;28;20059;-80
2022/02/01 10:16:27;;;;;;;25.23;11.38;;;;;;;5.71;100.00;101736.25;5265045;28;20388;-82
2022/02/01 10:19:18;;;;;;;27.50;12.57;;;;;;;5.75;100.00;101736.88;5268919;28;20026;-82
2022/02/01 10:21:52;;;;;;;29.13;12.38;;;;;;;5.77;100.00;101725.13;5250698;28;20059;-82
2022/02/01 10:24:38;;;;;;;36.60;13.55;;;;;;;5.77;100.00;101717.13;5259558;28;20031;-81
2022/02/01 10:27:13;;;;;;;28.38;12.90;;;;;;;5.81;100.00;101707.97;5279099;27;20024;-81
2022/02/01 10:33:31;;;;;;;29.40;13.35;;;;;;;5.81;100.00;101684.00;5252221;28;20424;-81
2022/02/01 10:36:01;;;;;;;34.00;14.25;;;;;;;5.87;100.00;101698.66;5275118;28;20024;-81
2022/02/01 10:38:33;;;;;;;36.25;16.10;;;;;;;5.89;100.00;101702.94;5287993;28;20048;-83
2022/02/01 10:41:05;;;;;;;39.03;14.43;;;;;;;5.89;100.00;101707.41;5269103;28;20031;-81
2022/02/01 10:43:36;;;;;;;34.53;14.75;;;;;;;5.90;100.00;101701.94;5235624;28;20096;-84
2022/02/01 10:46:09;;;;;;;30.33;14.20;;;;;;;5.91;100.00;101706.34;5250810;28;20024;-79
2022/02/01 10:48:59;;;;;;;32.55;14.52;;;;;;;5.99;100.00;101691.63;5268290;28;20431;-81
2022/02/01 10:51:29;;;;;;;33.85;14.98;;;;;;;6.02;100.00;101673.56;5270308;28;20028;-81
2022/02/01 10:54:01;;;;;;;36.00;16.02;;;;;;;6.02;100.00;101670.91;5247076;28;20013;-81
2022/02/01 10:56:32;;;;;;;33.47;14.40;;;;;;;6.06;100.00;101669.72;5246276;28;20031;-81
2022/02/01 10:59:03;;;;;;;34.58;15.05;;;;;;;6.10;100.00;101675.66;5264659;28;20369;-80
2022/02/01 11:01:33;;;;;;;39.80;14.73;;;;;;;6.12;100.00;101657.72;5267765;28;20051;-81
2022/02/01 11:04:08;;;;;;;33.55;14.18;;;;;;;6.11;100.00;101654.22;5273516;28;20020;-80
2022/02/01 11:06:39;;;;;;;32.42;14.60;;;;;;;6.13;100.00;101648.78;5214082;28;20069;-80
2022/02/01 11:09:10;;;;;;;33.70;13.30;;;;;;;6.10;100.00;101641.03;5245975;28;20028;-80
2022/02/01 11:11:50;;;;;;;41.72;20.63;;;;;;;6.20;100.00;101644.69;5259499;28;20130;-80
2022/02/01 11:14:22;;;;;;;40.70;18.65;;;;;;;6.27;100.00;101627.25;5263233;28;20028;-80
2022/02/01 11:17:15;;;;;;;33.40;13.90;;;;;;;6.26;100.00;101617.56;5238944;28;20098;-81
2022/02/01 11:20:05;;;;;;;39.22;20.20;;;;;;;6.38;100.00;101616.59;5274572;28;20031;-80
2022/02/01 11:22:39;;;;;;;30.65;14.30;;;;;;;6.35;100.00;101594.69;5255538;28;20079;-80
2022/02/01 11:25:20;;;;;;;37.10;16.60;;;;;;;6.34;100.00;101585.84;5273999;28;20050;-80
2022/02/01 11:28:20;;;;;;;39.10;16.92;;;;;;;6.41;100.00;101583.53;5256264;28;20505;-80
2022/02/01 11:30:53;;;;;;;34.58;14.35;;;;;;;6.43;100.00;101577.13;5274176;28;20085;-80
2022/02/01 11:33:35;;;;;;;34.22;16.63;;;;;;;6.49;100.00;101592.63;5257410;28;20034;-80
2022/02/01 11:36:08;;;;;;;42.35;18.23;;;;;;;6.54;100.00;101594.91;5273546;28;20054;-79
2022/02/01 11:38:52;;;;;;;60.17;24.75;;;;;;;6.57;100.00;101604.47;5273033;28;20034;-79
2022/02/01 11:41:42;;;;;;;46.60;19.77;;;;;;;6.63;100.00;101596.00;5256072;28;20032;-79
2022/02/01 11:44:21;;;;;;;49.05;19.88;;;;;;;6.67;100.00;101590.28;5273954;28;20364;-79
2022/02/01 11:47:12;;;;;;;51.78;21.08;;;;;;;6.77;100.00;101581.56;5277622;28;20674;-79
2022/02/01 11:50:01;;;;;;;61.08;25.90;;;;;;;6.78;100.00;101584.13;5276095;28;20028;-79
2022/02/01 11:52:56;;;;;;;60.03;26.08;;;;;;;6.86;100.00;101587.00;5276798;28;20055;-79
2022/02/01 11:55:31;;;;;;;56.03;23.38;;;;;;;6.87;100.00;101596.69;5277809;28;20535;-79
2022/02/01 11:58:04;;;;;;;48.03;21.43;;;;;;;6.90;100.00;101598.28;5262193;28;20398;-83
2022/02/01 12:00:39;;;;;;;49.83;20.80;;;;;;;6.96;100.00;101600.44;5260874;28;21261;-80
2022/02/01 12:03:17;;;;;;;41.70;16.83;;;;;;;6.98;100.00;101582.50;5277623;28;20023;-80
2022/02/01 12:05:54;;;;;;;39.00;16.30;;;;;;;7.01;100.00;101593.75;5260074;28;20023;-80
2022/02/01 12:08:58;;;;;;;41.40;19.95;;;;;;;7.10;100.00;101583.31;5277828;28;20016;-80
2022/02/01 12:11:29;;;;;;;45.35;17.35;;;;;;;7.19;100.00;101588.75;5275268;28;20103;-80
2022/02/01 12:14:04;;;;;;;45.80;16.98;;;;;;;7.22;100.00;101593.81;5244259;28;20024;-80
2022/02/01 12:16:34;;;;;;;37.50;15.00;;;;;;;7.22;100.00;101596.47;5258957;28;20027;-80
2022/02/01 12:19:10;;;;;;;39.92;17.27;;;;;;;7.34;100.00;101589.28;5277566;28;20027;-79
2022/02/01 12:21:50;;;;;;;43.15;15.27;;;;;;;7.40;100.00;101598.63;5259363;28;20032;-80
2022/02/01 12:24:24;;;;;;;30.85;12.70;;;;;;;7.48;100.00;101591.66;5276862;28;20027;-80
2022/02/01 12:26:55;;;;;;;35.13;13.68;;;;;;;7.53;100.00;101580.59;5276813;28;20103;-80
2022/02/01 12:29:26;;;;;;;36.08;14.02;;;;;;;7.57;100.00;101576.69;5276653;28;20494;-80
2022/02/01 12:32:05;;;;;;;102.97;45.72;;;;;;;7.61;100.00;101579.94;5259505;28;21386;-80
2022/02/01 12:34:36;;;;;;;39.42;17.23;;;;;;;7.64;100.00;101582.38;5277056;28;20122;-80
2022/02/01 12:37:08;;;;;;;48.38;18.77;;;;;;;7.72;100.00;101570.03;5258986;28;20034;-80
2022/02/01 12:39:44;;;;;;;48.92;26.52;;;;;;;7.76;100.00;101563.47;5275838;28;20376;-80
2022/02/01 12:42:26;;;;;;;33.67;13.52;;;;;;;7.86;100.00;101560.03;5277244;27;20651;-82
2022/02/01 12:47:46;;;;;;;34.72;12.07;;;;;;;7.99;100.00;101553.50;5261660;27;20028;-80
2022/02/01 12:50:17;;;;;;;30.70;11.25;;;;;;;8.07;100.00;101566.19;5258393;28;20035;-80
2022/02/01 12:52:57;;;;;;;37.92;11.60;;;;;;;8.15;100.00;101557.50;5275884;28;20028;-80
2022/02/01 12:55:28;;;;;;;34.75;12.18;;;;;;;8.20;100.00;101542.75;5276251;27;20027;-80
2022/02/01 12:58:04;;;;;;;32.05;10.73;;;;;;;8.22;100.00;101529.25;5275966;28;20142;-80
2022/02/01 13:00:35;;;;;;;33.47;10.80;;;;;;;8.27;100.00;101524.34;5275860;28;20016;-80
2022/02/01 13:03:06;;;;;;;31.48;10.95;;;;;;;8.26;100.00;101518.16;5258117;28;20030;-80
2022/02/01 13:05:38;;;;;;;42.72;15.18;;;;;;;8.30;100.00;101518.75;5276019;28;20141;-80